sensor_id;sensor_type;location;lat;lon;timestamp;P1;durP1;ratioP1;P2;durP2;ratioP2
10295;SDS011;5193;51.032;6.356;2023-08-08T00:02:07;2.47;;;1.53;;
10295;SDS011;5193;51.032;6.356;2023-08-08T00:04:33;4.57;;;1.80;;
10295;SDS011;5193;51.032;6.356;2023-08-08T00:06:58;2.57;;;1.77;;
10295;SDS011;5193;51.032;6.356;2023-08-08T00:09:24;4.70;;;1.50;;
10295;SDS011;5193;51.032;6.356;2023-08-08T00:11:49;2.93;;;1.80;;
10295;SDS011;5193;51.032;6.356;2023-08-08T00:14:15;3.73;;;2.07;;
10295;SDS011;5193;51.032;6.356;2023-08-08T00:16:41;4.33;;;2.10;;
10295;SDS011;5193;51.032;6.356;2023-08-08T00:19:07;3.90;;;2.20;;
10295;SDS011;5193;51.032;6.356;2023-08-08T00:21:32;4.07;;;2.47;;
10295;SDS011;5193;51.032;6.356;2023-08-08T00:23:58;2.10;;;1.90;;
10295;SDS011;5193;51.032;6.356;2023-08-08T00:26:24;3.43;;;2.13;;
10295;SDS011;5193;51.032;6.356;2023-08-08T00:28:49;4.63;;;2.67;;
10295;SDS011;5193;51.032;6.356;2023-08-08T00:31:15;3.57;;;2.10;;
10295;SDS011;5193;51.032;6.356;2023-08-08T00:33:42;5.07;;;2.50;;
10295;SDS011;5193;51.032;6.356;2023-08-08T00:36:08;3.17;;;2.47;;
10295;SDS011;5193;51.032;6.356;2023-08-08T00:38:33;3.03;;;2.17;;
10295;SDS011;5193;51.032;6.356;2023-08-08T00:40:59;7.90;;;2.93;;
10295;SDS011;5193;51.032;6.356;2023-08-08T00:43:25;6.00;;;1.90;;
10295;SDS011;5193;51.032;6.356;2023-08-08T00:45:50;5.50;;;2.27;;
10295;SDS011;5193;51.032;6.356;2023-08-08T00:48:16;4.27;;;2.50;;
10295;SDS011;5193;51.032;6.356;2023-08-08T00:50:42;3.23;;;2.37;;
10295;SDS011;5193;51.032;6.356;2023-08-08T00:53:11;4.20;;;1.80;;
10295;SDS011;5193;51.032;6.356;2023-08-08T00:55:37;3.20;;;1.93;;
10295;SDS011;5193;51.032;6.356;2023-08-08T00:58:03;4.33;;;2.33;;
10295;SDS011;5193;51.032;6.356;2023-08-08T01:00:29;3.77;;;2.13;;
10295;SDS011;5193;51.032;6.356;2023-08-08T01:02:55;3.17;;;1.87;;
10295;SDS011;5193;51.032;6.356;2023-08-08T01:05:20;3.93;;;1.90;;
10295;SDS011;5193;51.032;6.356;2023-08-08T01:10:23;6.63;;;2.27;;
10295;SDS011;5193;51.032;6.356;2023-08-08T01:13:13;3.43;;;2.13;;
10295;SDS011;5193;51.032;6.356;2023-08-08T01:15:42;5.37;;;2.50;;
10295;SDS011;5193;51.032;6.356;2023-08-08T01:18:09;4.93;;;2.17;;
10295;SDS011;5193;51.032;6.356;2023-08-08T01:20:36;4.57;;;2.13;;
10295;SDS011;5193;51.032;6.356;2023-08-08T01:25:52;6.63;;;2.30;;
10295;SDS011;5193;51.032;6.356;2023-08-08T01:28:22;3.23;;;2.07;;
10295;SDS011;5193;51.032;6.356;2023-08-08T01:30:48;4.10;;;2.17;;
10295;SDS011;5193;51.032;6.356;2023-08-08T01:33:14;4.50;;;2.10;;
10295;SDS011;5193;51.032;6.356;2023-08-08T01:35:40;4.23;;;2.20;;
10295;SDS011;5193;51.032;6.356;2023-08-08T01:38:16;3.03;;;1.90;;
10295;SDS011;5193;51.032;6.356;2023-08-08T01:40:45;2.40;;;1.60;;
10295;SDS011;5193;51.032;6.356;2023-08-08T01:43:11;4.03;;;2.40;;
10295;SDS011;5193;51.032;6.356;2023-08-08T01:45:39;5.37;;;1.90;;
10295;SDS011;5193;51.032;6.356;2023-08-08T01:48:08;5.73;;;2.07;;
10295;SDS011;5193;51.032;6.356;2023-08-08T01:50:35;3.87;;;1.90;;
10295;SDS011;5193;51.032;6.356;2023-08-08T01:53:01;3.53;;;1.80;;
10295;SDS011;5193;51.032;6.356;2023-08-08T01:55:27;3.83;;;1.60;;
10295;SDS011;5193;51.032;6.356;2023-08-08T01:57:53;3.73;;;1.80;;
10295;SDS011;5193;51.032;6.356;2023-08-08T02:00:19;6.17;;;1.77;;
10295;SDS011;5193;51.032;6.356;2023-08-08T02:02:44;2.73;;;1.90;;
10295;SDS011;5193;51.032;6.356;2023-08-08T02:05:10;4.07;;;1.80;;
10295;SDS011;5193;51.032;6.356;2023-08-08T02:07:36;2.50;;;1.73;;
10295;SDS011;5193;51.032;6.356;2023-08-08T02:10:01;3.60;;;1.70;;
10295;SDS011;5193;51.032;6.356;2023-08-08T02:12:27;2.97;;;1.67;;
10295;SDS011;5193;51.032;6.356;2023-08-08T02:14:55;3.40;;;1.70;;
10295;SDS011;5193;51.032;6.356;2023-08-08T02:17:21;3.77;;;2.03;;
10295;SDS011;5193;51.032;6.356;2023-08-08T02:19:46;2.73;;;2.07;;
10295;SDS011;5193;51.032;6.356;2023-08-08T02:22:12;5.70;;;1.87;;
10295;SDS011;5193;51.032;6.356;2023-08-08T02:24:37;4.03;;;1.90;;
10295;SDS011;5193;51.032;6.356;2023-08-08T02:27:03;4.17;;;2.00;;
10295;SDS011;5193;51.032;6.356;2023-08-08T02:29:29;3.77;;;2.03;;
10295;SDS011;5193;51.032;6.356;2023-08-08T02:31:55;7.30;;;1.73;;
10295;SDS011;5193;51.032;6.356;2023-08-08T02:34:20;3.40;;;1.80;;
10295;SDS011;5193;51.032;6.356;2023-08-08T02:36:46;7.57;;;1.97;;
10295;SDS011;5193;51.032;6.356;2023-08-08T02:39:11;9.77;;;2.10;;
10295;SDS011;5193;51.032;6.356;2023-08-08T02:41:37;7.67;;;1.90;;
10295;SDS011;5193;51.032;6.356;2023-08-08T02:44:03;5.67;;;1.67;;
10295;SDS011;5193;51.032;6.356;2023-08-08T02:46:28;3.83;;;2.07;;
10295;SDS011;5193;51.032;6.356;2023-08-08T02:48:54;6.03;;;2.10;;
10295;SDS011;5193;51.032;6.356;2023-08-08T02:51:19;5.27;;;1.80;;
10295;SDS011;5193;51.032;6.356;2023-08-08T02:53:45;3.33;;;2.00;;
10295;SDS011;5193;51.032;6.356;2023-08-08T02:56:10;7.23;;;2.10;;
10295;SDS011;5193;51.032;6.356;2023-08-08T02:58:36;5.00;;;2.00;;
10295;SDS011;5193;51.032;6.356;2023-08-08T03:01:02;4.63;;;2.03;;
10295;SDS011;5193;51.032;6.356;2023-08-08T03:03:27;4.73;;;2.03;;
10295;SDS011;5193;51.032;6.356;2023-08-08T03:05:53;5.67;;;2.20;;
10295;SDS011;5193;51.032;6.356;2023-08-08T03:08:19;8.10;;;2.30;;
10295;SDS011;5193;51.032;6.356;2023-08-08T03:10:44;5.00;;;2.37;;
10295;SDS011;5193;51.032;6.356;2023-08-08T03:13:10;4.87;;;2.30;;
10295;SDS011;5193;51.032;6.356;2023-08-08T03:15:35;6.97;;;2.47;;
10295;SDS011;5193;51.032;6.356;2023-08-08T03:18:01;5.27;;;2.30;;
10295;SDS011;5193;51.032;6.356;2023-08-08T03:20:30;7.87;;;2.07;;
10295;SDS011;5193;51.032;6.356;2023-08-08T03:22:56;5.77;;;2.20;;
10295;SDS011;5193;51.032;6.356;2023-08-08T03:25:21;5.87;;;2.37;;
10295;SDS011;5193;51.032;6.356;2023-08-08T03:27:47;5.20;;;2.10;;
10295;SDS011;5193;51.032;6.356;2023-08-08T03:30:13;9.00;;;2.50;;
10295;SDS011;5193;51.032;6.356;2023-08-08T03:32:39;8.17;;;2.30;;
10295;SDS011;5193;51.032;6.356;2023-08-08T03:35:04;4.93;;;2.10;;
10295;SDS011;5193;51.032;6.356;2023-08-08T03:37:31;4.97;;;2.40;;
10295;SDS011;5193;51.032;6.356;2023-08-08T03:39:56;5.67;;;2.40;;
10295;SDS011;5193;51.032;6.356;2023-08-08T03:42:22;6.63;;;2.10;;
10295;SDS011;5193;51.032;6.356;2023-08-08T03:44:48;13.23;;;2.67;;
10295;SDS011;5193;51.032;6.356;2023-08-08T03:47:13;7.77;;;2.50;;
10295;SDS011;5193;51.032;6.356;2023-08-08T03:49:39;6.80;;;2.30;;
10295;SDS011;5193;51.032;6.356;2023-08-08T03:52:05;4.60;;;2.40;;
10295;SDS011;5193;51.032;6.356;2023-08-08T03:54:31;9.33;;;2.73;;
10295;SDS011;5193;51.032;6.356;2023-08-08T03:56:56;6.27;;;2.57;;
10295;SDS011;5193;51.032;6.356;2023-08-08T03:59:22;4.43;;;2.30;;
10295;SDS011;5193;51.032;6.356;2023-08-08T04:01:48;3.83;;;2.57;;
10295;SDS011;5193;51.032;6.356;2023-08-08T04:04:14;7.57;;;2.57;;
10295;SDS011;5193;51.032;6.356;2023-08-08T04:06:39;7.10;;;2.83;;
10295;SDS011;5193;51.032;6.356;2023-08-08T04:09:05;5.60;;;2.67;;
10295;SDS011;5193;51.032;6.356;2023-08-08T04:11:31;8.20;;;2.83;;
10295;SDS011;5193;51.032;6.356;2023-08-08T04:14:00;12.83;;;3.00;;
10295;SDS011;5193;51.032;6.356;2023-08-08T04:16:25;13.97;;;3.40;;
10295;SDS011;5193;51.032;6.356;2023-08-08T04:18:51;5.10;;;2.70;;
10295;SDS011;5193;51.032;6.356;2023-08-08T04:21:16;9.03;;;3.30;;
10295;SDS011;5193;51.032;6.356;2023-08-08T04:23:42;7.43;;;3.53;;
10295;SDS011;5193;51.032;6.356;2023-08-08T04:26:08;7.63;;;3.67;;
10295;SDS011;5193;51.032;6.356;2023-08-08T04:28:33;14.07;;;3.37;;
10295;SDS011;5193;51.032;6.356;2023-08-08T04:30:59;9.63;;;3.20;;
10295;SDS011;5193;51.032;6.356;2023-08-08T04:33:24;10.03;;;3.13;;
10295;SDS011;5193;51.032;6.356;2023-08-08T04:35:50;7.73;;;3.20;;
10295;SDS011;5193;51.032;6.356;2023-08-08T04:38:15;11.37;;;2.93;;
10295;SDS011;5193;51.032;6.356;2023-08-08T04:40:42;12.37;;;3.17;;
10295;SDS011;5193;51.032;6.356;2023-08-08T04:43:08;6.80;;;3.20;;
10295;SDS011;5193;51.032;6.356;2023-08-08T04:45:37;9.77;;;3.33;;
10295;SDS011;5193;51.032;6.356;2023-08-08T04:48:07;8.50;;;2.70;;
10295;SDS011;5193;51.032;6.356;2023-08-08T04:50:33;12.80;;;3.13;;
10295;SDS011;5193;51.032;6.356;2023-08-08T04:52:59;11.63;;;2.93;;
10295;SDS011;5193;51.032;6.356;2023-08-08T04:55:24;10.03;;;3.40;;
10295;SDS011;5193;51.032;6.356;2023-08-08T04:57:50;12.07;;;3.60;;
10295;SDS011;5193;51.032;6.356;2023-08-08T05:00:16;11.27;;;3.50;;
10295;SDS011;5193;51.032;6.356;2023-08-08T05:02:42;11.03;;;3.40;;
10295;SDS011;5193;51.032;6.356;2023-08-08T05:05:08;6.30;;;2.97;;
10295;SDS011;5193;51.032;6.356;2023-08-08T05:07:34;8.20;;;2.97;;
10295;SDS011;5193;51.032;6.356;2023-08-08T05:10:02;9.70;;;3.17;;
10295;SDS011;5193;51.032;6.356;2023-08-08T05:12:28;10.50;;;3.20;;
10295;SDS011;5193;51.032;6.356;2023-08-08T05:14:54;9.37;;;2.90;;
10295;SDS011;5193;51.032;6.356;2023-08-08T05:17:20;11.30;;;3.17;;
10295;SDS011;5193;51.032;6.356;2023-08-08T05:19:46;9.17;;;3.43;;
10295;SDS011;5193;51.032;6.356;2023-08-08T05:22:12;6.97;;;3.33;;
10295;SDS011;5193;51.032;6.356;2023-08-08T05:24:39;8.67;;;2.50;;
10295;SDS011;5193;51.032;6.356;2023-08-08T05:27:08;12.63;;;3.30;;
10295;SDS011;5193;51.032;6.356;2023-08-08T05:29:36;8.23;;;2.50;;
10295;SDS011;5193;51.032;6.356;2023-08-08T05:32:07;7.80;;;3.70;;
10295;SDS011;5193;51.032;6.356;2023-08-08T05:34:36;11.10;;;3.67;;
10295;SDS011;5193;51.032;6.356;2023-08-08T05:37:07;10.40;;;2.53;;
10295;SDS011;5193;51.032;6.356;2023-08-08T05:39:37;10.87;;;3.17;;
10295;SDS011;5193;51.032;6.356;2023-08-08T05:42:03;7.87;;;2.50;;
10295;SDS011;5193;51.032;6.356;2023-08-08T05:44:30;11.13;;;2.77;;
10295;SDS011;5193;51.032;6.356;2023-08-08T05:46:59;6.03;;;1.90;;
10295;SDS011;5193;51.032;6.356;2023-08-08T05:49:30;8.83;;;2.83;;
10295;SDS011;5193;51.032;6.356;2023-08-08T05:52:00;7.20;;;2.50;;
10295;SDS011;5193;51.032;6.356;2023-08-08T05:54:27;9.07;;;2.27;;
10295;SDS011;5193;51.032;6.356;2023-08-08T05:56:55;9.80;;;2.13;;
10295;SDS011;5193;51.032;6.356;2023-08-08T05:59:23;11.83;;;2.73;;
10295;SDS011;5193;51.032;6.356;2023-08-08T06:01:52;7.37;;;2.27;;
10295;SDS011;5193;51.032;6.356;2023-08-08T06:04:20;7.90;;;2.13;;
10295;SDS011;5193;51.032;6.356;2023-08-08T06:06:48;8.87;;;2.43;;
10295;SDS011;5193;51.032;6.356;2023-08-08T06:09:17;9.23;;;2.37;;
10295;SDS011;5193;51.032;6.356;2023-08-08T06:11:45;8.13;;;2.53;;
10295;SDS011;5193;51.032;6.356;2023-08-08T06:14:12;11.27;;;3.07;;
10295;SDS011;5193;51.032;6.356;2023-08-08T06:16:38;6.57;;;2.20;;
10295;SDS011;5193;51.032;6.356;2023-08-08T06:19:07;6.87;;;2.17;;
10295;SDS011;5193;51.032;6.356;2023-08-08T06:21:42;8.37;;;2.67;;
10295;SDS011;5193;51.032;6.356;2023-08-08T06:24:17;8.37;;;2.83;;
10295;SDS011;5193;51.032;6.356;2023-08-08T06:26:45;11.07;;;3.00;;
10295;SDS011;5193;51.032;6.356;2023-08-08T06:29:22;9.77;;;2.10;;
10295;SDS011;5193;51.032;6.356;2023-08-08T06:32:06;6.60;;;2.40;;
10295;SDS011;5193;51.032;6.356;2023-08-08T06:34:34;5.10;;;2.33;;
10295;SDS011;5193;51.032;6.356;2023-08-08T06:37:01;10.63;;;2.90;;
10295;SDS011;5193;51.032;6.356;2023-08-08T06:39:29;12.63;;;2.57;;
10295;SDS011;5193;51.032;6.356;2023-08-08T06:42:04;5.67;;;2.23;;
10295;SDS011;5193;51.032;6.356;2023-08-08T06:44:32;12.43;;;2.70;;
10295;SDS011;5193;51.032;6.356;2023-08-08T06:47:14;5.47;;;2.73;;
10295;SDS011;5193;51.032;6.356;2023-08-08T06:49:42;6.87;;;2.50;;
10295;SDS011;5193;51.032;6.356;2023-08-08T06:52:11;7.70;;;2.63;;
10295;SDS011;5193;51.032;6.356;2023-08-08T06:54:45;8.30;;;2.77;;
10295;SDS011;5193;51.032;6.356;2023-08-08T06:57:13;8.87;;;2.83;;
10295;SDS011;5193;51.032;6.356;2023-08-08T06:59:40;7.30;;;2.77;;
10295;SDS011;5193;51.032;6.356;2023-08-08T07:02:15;9.90;;;3.10;;
10295;SDS011;5193;51.032;6.356;2023-08-08T07:04:49;8.93;;;2.80;;
10295;SDS011;5193;51.032;6.356;2023-08-08T07:07:22;5.37;;;2.80;;
10295;SDS011;5193;51.032;6.356;2023-08-08T07:13:25;8.30;;;2.57;;
10295;SDS011;5193;51.032;6.356;2023-08-08T07:22:33;7.27;;;2.73;;
10295;SDS011;5193;51.032;6.356;2023-08-08T07:52:43;12.67;;;3.03;;
10295;SDS011;5193;51.032;6.356;2023-08-08T07:55:09;10.07;;;2.77;;
10295;SDS011;5193;51.032;6.356;2023-08-08T07:57:44;8.40;;;3.03;;
10295;SDS011;5193;51.032;6.356;2023-08-08T08:00:13;9.33;;;2.97;;
10295;SDS011;5193;51.032;6.356;2023-08-08T08:02:41;6.43;;;3.30;;
10295;SDS011;5193;51.032;6.356;2023-08-08T08:05:12;7.33;;;3.07;;
10295;SDS011;5193;51.032;6.356;2023-08-08T08:07:39;10.73;;;3.30;;
10295;SDS011;5193;51.032;6.356;2023-08-08T08:10:11;6.60;;;2.77;;
10295;SDS011;5193;51.032;6.356;2023-08-08T08:12:39;11.17;;;2.93;;
10295;SDS011;5193;51.032;6.356;2023-08-08T08:15:11;9.03;;;2.97;;
10295;SDS011;5193;51.032;6.356;2023-08-08T08:17:38;4.30;;;2.70;;
10295;SDS011;5193;51.032;6.356;2023-08-08T08:20:09;8.77;;;3.37;;
10295;SDS011;5193;51.032;6.356;2023-08-08T08:22:36;10.57;;;2.80;;
10295;SDS011;5193;51.032;6.356;2023-08-08T08:25:04;9.13;;;3.03;;
10295;SDS011;5193;51.032;6.356;2023-08-08T08:27:32;6.03;;;3.00;;
10295;SDS011;5193;51.032;6.356;2023-08-08T08:29:59;9.10;;;3.07;;
10295;SDS011;5193;51.032;6.356;2023-08-08T08:32:25;7.33;;;2.90;;
10295;SDS011;5193;51.032;6.356;2023-08-08T08:34:52;11.13;;;2.97;;
10295;SDS011;5193;51.032;6.356;2023-08-08T08:37:19;7.63;;;2.80;;
10295;SDS011;5193;51.032;6.356;2023-08-08T08:39:45;7.57;;;2.80;;
10295;SDS011;5193;51.032;6.356;2023-08-08T08:42:11;7.73;;;2.83;;
10295;SDS011;5193;51.032;6.356;2023-08-08T08:44:40;11.80;;;3.23;;
10295;SDS011;5193;51.032;6.356;2023-08-08T08:47:08;6.97;;;3.10;;
10295;SDS011;5193;51.032;6.356;2023-08-08T08:49:40;10.20;;;2.73;;
10295;SDS011;5193;51.032;6.356;2023-08-08T08:52:11;6.60;;;2.40;;
10295;SDS011;5193;51.032;6.356;2023-08-08T08:54:38;7.73;;;2.50;;
10295;SDS011;5193;51.032;6.356;2023-08-08T08:57:07;8.17;;;2.60;;
10295;SDS011;5193;51.032;6.356;2023-08-08T08:59:37;7.83;;;2.83;;
10295;SDS011;5193;51.032;6.356;2023-08-08T09:02:10;7.37;;;2.70;;
10295;SDS011;5193;51.032;6.356;2023-08-08T09:04:37;6.20;;;2.73;;
10295;SDS011;5193;51.032;6.356;2023-08-08T09:07:03;7.77;;;3.10;;
10295;SDS011;5193;51.032;6.356;2023-08-08T09:09:37;6.33;;;2.83;;
10295;SDS011;5193;51.032;6.356;2023-08-08T09:12:09;6.27;;;2.97;;
10295;SDS011;5193;51.032;6.356;2023-08-08T09:14:41;11.60;;;3.13;;
10295;SDS011;5193;51.032;6.356;2023-08-08T09:17:11;7.63;;;3.00;;
10295;SDS011;5193;51.032;6.356;2023-08-08T09:19:49;7.13;;;2.83;;
10295;SDS011;5193;51.032;6.356;2023-08-08T09:22:15;9.00;;;2.90;;
10295;SDS011;5193;51.032;6.356;2023-08-08T09:24:57;6.40;;;2.73;;
10295;SDS011;5193;51.032;6.356;2023-08-08T09:27:24;8.60;;;3.37;;
10295;SDS011;5193;51.032;6.356;2023-08-08T09:29:49;9.03;;;2.90;;
10295;SDS011;5193;51.032;6.356;2023-08-08T09:32:17;10.73;;;3.30;;
10295;SDS011;5193;51.032;6.356;2023-08-08T09:35:02;6.40;;;2.83;;
10295;SDS011;5193;51.032;6.356;2023-08-08T09:37:28;4.47;;;2.40;;
10295;SDS011;5193;51.032;6.356;2023-08-08T09:39:58;6.47;;;2.40;;
10295;SDS011;5193;51.032;6.356;2023-08-08T09:42:29;6.90;;;2.70;;
10295;SDS011;5193;51.032;6.356;2023-08-08T09:44:58;7.37;;;2.67;;
10295;SDS011;5193;51.032;6.356;2023-08-08T09:47:25;6.67;;;2.40;;
10295;SDS011;5193;51.032;6.356;2023-08-08T09:50:02;5.03;;;2.63;;
10295;SDS011;5193;51.032;6.356;2023-08-08T09:52:33;9.20;;;2.67;;
10295;SDS011;5193;51.032;6.356;2023-08-08T09:55:00;6.83;;;2.33;;
10295;SDS011;5193;51.032;6.356;2023-08-08T09:57:37;9.00;;;2.50;;
10295;SDS011;5193;51.032;6.356;2023-08-08T10:00:19;8.13;;;3.03;;
10295;SDS011;5193;51.032;6.356;2023-08-08T10:02:49;8.20;;;2.47;;
10295;SDS011;5193;51.032;6.356;2023-08-08T10:05:15;7.93;;;2.30;;
10295;SDS011;5193;51.032;6.356;2023-08-08T10:07:41;4.27;;;2.43;;
10295;SDS011;5193;51.032;6.356;2023-08-08T10:10:09;6.60;;;2.13;;
10295;SDS011;5193;51.032;6.356;2023-08-08T10:12:36;3.30;;;2.00;;
10295;SDS011;5193;51.032;6.356;2023-08-08T10:15:07;6.30;;;2.57;;
10295;SDS011;5193;51.032;6.356;2023-08-08T10:17:37;4.17;;;1.93;;
10295;SDS011;5193;51.032;6.356;2023-08-08T10:20:04;8.10;;;1.93;;
10295;SDS011;5193;51.032;6.356;2023-08-08T10:22:43;6.70;;;2.20;;
10295;SDS011;5193;51.032;6.356;2023-08-08T10:25:32;3.43;;;2.10;;
10295;SDS011;5193;51.032;6.356;2023-08-08T10:28:08;5.33;;;2.10;;
10295;SDS011;5193;51.032;6.356;2023-08-08T10:30:47;5.77;;;2.07;;
10295;SDS011;5193;51.032;6.356;2023-08-08T10:33:27;5.80;;;1.80;;
10295;SDS011;5193;51.032;6.356;2023-08-08T10:36:04;5.43;;;2.13;;
10295;SDS011;5193;51.032;6.356;2023-08-08T10:38:52;10.17;;;2.20;;
10295;SDS011;5193;51.032;6.356;2023-08-08T10:41:26;5.20;;;1.97;;
10295;SDS011;5193;51.032;6.356;2023-08-08T10:43:53;6.40;;;1.93;;
10295;SDS011;5193;51.032;6.356;2023-08-08T10:49:00;5.30;;;2.07;;
10295;SDS011;5193;51.032;6.356;2023-08-08T10:51:36;5.87;;;2.00;;
10295;SDS011;5193;51.032;6.356;2023-08-08T10:54:06;10.17;;;2.30;;
10295;SDS011;5193;51.032;6.356;2023-08-08T10:56:34;5.63;;;1.80;;
10295;SDS011;5193;51.032;6.356;2023-08-08T10:59:11;8.70;;;2.20;;
10295;SDS011;5193;51.032;6.356;2023-08-08T11:01:40;6.07;;;1.90;;
10295;SDS011;5193;51.032;6.356;2023-08-08T11:04:08;4.60;;;2.00;;
10295;SDS011;5193;51.032;6.356;2023-08-08T11:06:41;3.73;;;1.70;;
10295;SDS011;5193;51.032;6.356;2023-08-08T11:09:07;6.67;;;1.70;;
10295;SDS011;5193;51.032;6.356;2023-08-08T11:11:37;4.67;;;1.80;;
10295;SDS011;5193;51.032;6.356;2023-08-08T11:14:10;7.47;;;1.73;;
10295;SDS011;5193;51.032;6.356;2023-08-08T11:16:43;6.83;;;1.83;;
10295;SDS011;5193;51.032;6.356;2023-08-08T11:19:14;7.90;;;2.33;;
10295;SDS011;5193;51.032;6.356;2023-08-08T11:21:44;6.20;;;1.97;;
10295;SDS011;5193;51.032;6.356;2023-08-08T11:24:15;6.10;;;1.63;;
10295;SDS011;5193;51.032;6.356;2023-08-08T11:26:47;4.60;;;2.13;;
10295;SDS011;5193;51.032;6.356;2023-08-08T11:29:25;7.73;;;1.97;;
10295;SDS011;5193;51.032;6.356;2023-08-08T11:31:56;4.83;;;1.70;;
10295;SDS011;5193;51.032;6.356;2023-08-08T11:34:25;4.90;;;1.60;;
10295;SDS011;5193;51.032;6.356;2023-08-08T11:36:53;5.87;;;1.70;;
10295;SDS011;5193;51.032;6.356;2023-08-08T11:39:23;6.53;;;2.00;;
10295;SDS011;5193;51.032;6.356;2023-08-08T11:41:52;5.60;;;1.80;;
10295;SDS011;5193;51.032;6.356;2023-08-08T11:44:19;3.33;;;1.70;;
10295;SDS011;5193;51.032;6.356;2023-08-08T11:46:45;3.77;;;1.60;;
10295;SDS011;5193;51.032;6.356;2023-08-08T11:49:16;5.23;;;1.43;;
10295;SDS011;5193;51.032;6.356;2023-08-08T11:51:45;10.47;;;2.33;;
10295;SDS011;5193;51.032;6.356;2023-08-08T11:54:28;5.67;;;1.93;;
10295;SDS011;5193;51.032;6.356;2023-08-08T11:56:54;6.83;;;2.80;;
10295;SDS011;5193;51.032;6.356;2023-08-08T11:59:22;7.97;;;2.80;;
10295;SDS011;5193;51.032;6.356;2023-08-08T12:01:52;6.43;;;2.13;;
10295;SDS011;5193;51.032;6.356;2023-08-08T12:04:20;6.40;;;2.10;;
10295;SDS011;5193;51.032;6.356;2023-08-08T12:06:49;3.97;;;2.20;;
10295;SDS011;5193;51.032;6.356;2023-08-08T12:09:15;4.80;;;2.00;;
10295;SDS011;5193;51.032;6.356;2023-08-08T12:11:43;6.87;;;2.00;;
10295;SDS011;5193;51.032;6.356;2023-08-08T12:14:11;4.13;;;2.07;;
10295;SDS011;5193;51.032;6.356;2023-08-08T12:16:38;6.43;;;2.33;;
10295;SDS011;5193;51.032;6.356;2023-08-08T12:19:06;5.67;;;2.40;;
10295;SDS011;5193;51.032;6.356;2023-08-08T12:21:45;7.20;;;2.47;;
10295;SDS011;5193;51.032;6.356;2023-08-08T12:24:22;5.87;;;2.30;;
10295;SDS011;5193;51.032;6.356;2023-08-08T12:26:48;4.83;;;2.30;;
10295;SDS011;5193;51.032;6.356;2023-08-08T12:29:18;5.60;;;2.60;;
10295;SDS011;5193;51.032;6.356;2023-08-08T12:31:44;5.57;;;2.40;;
10295;SDS011;5193;51.032;6.356;2023-08-08T12:34:09;3.93;;;2.30;;
10295;SDS011;5193;51.032;6.356;2023-08-08T12:36:35;3.67;;;2.30;;
10295;SDS011;5193;51.032;6.356;2023-08-08T12:39:04;7.10;;;2.10;;
10295;SDS011;5193;51.032;6.356;2023-08-08T12:41:31;5.03;;;2.03;;
10295;SDS011;5193;51.032;6.356;2023-08-08T12:43:56;5.67;;;1.63;;
10295;SDS011;5193;51.032;6.356;2023-08-08T12:46:28;5.10;;;1.60;;
10295;SDS011;5193;51.032;6.356;2023-08-08T12:48:55;5.73;;;1.80;;
10295;SDS011;5193;51.032;6.356;2023-08-08T12:51:24;4.27;;;1.77;;
10295;SDS011;5193;51.032;6.356;2023-08-08T12:54:06;6.07;;;1.60;;
10295;SDS011;5193;51.032;6.356;2023-08-08T12:56:38;5.80;;;1.70;;
10295;SDS011;5193;51.032;6.356;2023-08-08T12:59:09;6.93;;;1.50;;
10295;SDS011;5193;51.032;6.356;2023-08-08T13:01:37;6.00;;;1.60;;
10295;SDS011;5193;51.032;6.356;2023-08-08T13:04:04;6.90;;;1.87;;
10295;SDS011;5193;51.032;6.356;2023-08-08T13:06:30;7.70;;;1.93;;
10295;SDS011;5193;51.032;6.356;2023-08-08T13:09:05;5.93;;;2.10;;
10295;SDS011;5193;51.032;6.356;2023-08-08T13:11:44;6.13;;;1.80;;
10295;SDS011;5193;51.032;6.356;2023-08-08T13:14:10;4.10;;;1.90;;
10295;SDS011;5193;51.032;6.356;2023-08-08T13:16:39;4.87;;;2.03;;
10295;SDS011;5193;51.032;6.356;2023-08-08T13:19:14;6.83;;;2.20;;
10295;SDS011;5193;51.032;6.356;2023-08-08T13:21:44;8.43;;;2.43;;
10295;SDS011;5193;51.032;6.356;2023-08-08T13:24:11;8.53;;;2.03;;
10295;SDS011;5193;51.032;6.356;2023-08-08T13:26:41;3.20;;;1.50;;
10295;SDS011;5193;51.032;6.356;2023-08-08T13:29:18;3.40;;;1.50;;
10295;SDS011;5193;51.032;6.356;2023-08-08T13:31:45;5.90;;;1.47;;
10295;SDS011;5193;51.032;6.356;2023-08-08T13:34:11;7.70;;;1.93;;
10295;SDS011;5193;51.032;6.356;2023-08-08T13:36:37;3.90;;;1.30;;
10295;SDS011;5193;51.032;6.356;2023-08-08T13:39:07;3.67;;;1.60;;
10295;SDS011;5193;51.032;6.356;2023-08-08T13:42:02;5.87;;;1.93;;
10295;SDS011;5193;51.032;6.356;2023-08-08T13:44:44;4.87;;;1.63;;
10295;SDS011;5193;51.032;6.356;2023-08-08T13:47:10;3.53;;;1.47;;
10295;SDS011;5193;51.032;6.356;2023-08-08T13:49:39;5.23;;;1.83;;
10295;SDS011;5193;51.032;6.356;2023-08-08T13:52:10;5.00;;;1.70;;
10295;SDS011;5193;51.032;6.356;2023-08-08T13:54:36;5.27;;;1.70;;
10295;SDS011;5193;51.032;6.356;2023-08-08T13:57:02;5.77;;;1.57;;
10295;SDS011;5193;51.032;6.356;2023-08-08T13:59:28;3.10;;;1.30;;
10295;SDS011;5193;51.032;6.356;2023-08-08T14:01:54;5.80;;;1.90;;
10295;SDS011;5193;51.032;6.356;2023-08-08T14:04:20;4.00;;;1.73;;
10295;SDS011;5193;51.032;6.356;2023-08-08T14:06:46;5.77;;;1.63;;
10295;SDS011;5193;51.032;6.356;2023-08-08T14:09:12;4.27;;;1.53;;
10295;SDS011;5193;51.032;6.356;2023-08-08T14:11:53;4.50;;;1.60;;
10295;SDS011;5193;51.032;6.356;2023-08-08T14:14:20;3.33;;;1.60;;
10295;SDS011;5193;51.032;6.356;2023-08-08T14:16:45;9.23;;;1.60;;
10295;SDS011;5193;51.032;6.356;2023-08-08T14:19:11;3.83;;;1.50;;
10295;SDS011;5193;51.032;6.356;2023-08-08T14:21:38;5.13;;;1.90;;
10295;SDS011;5193;51.032;6.356;2023-08-08T14:24:03;4.20;;;1.67;;
10295;SDS011;5193;51.032;6.356;2023-08-08T14:26:29;4.33;;;1.67;;
10295;SDS011;5193;51.032;6.356;2023-08-08T14:28:55;2.10;;;1.10;;
10295;SDS011;5193;51.032;6.356;2023-08-08T14:31:21;4.13;;;1.40;;
10295;SDS011;5193;51.032;6.356;2023-08-08T14:33:47;4.70;;;1.83;;
10295;SDS011;5193;51.032;6.356;2023-08-08T14:36:12;4.77;;;1.70;;
10295;SDS011;5193;51.032;6.356;2023-08-08T14:38:38;4.73;;;1.53;;
10295;SDS011;5193;51.032;6.356;2023-08-08T14:41:04;6.10;;;1.80;;
10295;SDS011;5193;51.032;6.356;2023-08-08T14:43:30;4.00;;;1.73;;
10295;SDS011;5193;51.032;6.356;2023-08-08T14:45:57;1.93;;;1.27;;
10295;SDS011;5193;51.032;6.356;2023-08-08T14:48:22;3.03;;;1.40;;
10295;SDS011;5193;51.032;6.356;2023-08-08T14:50:48;2.13;;;1.47;;
10295;SDS011;5193;51.032;6.356;2023-08-08T14:53:17;3.57;;;1.30;;
10295;SDS011;5193;51.032;6.356;2023-08-08T14:55:44;1.90;;;1.50;;
10295;SDS011;5193;51.032;6.356;2023-08-08T14:58:10;3.00;;;1.40;;
10295;SDS011;5193;51.032;6.356;2023-08-08T15:00:38;3.50;;;1.73;;
10295;SDS011;5193;51.032;6.356;2023-08-08T15:03:04;3.33;;;1.53;;
10295;SDS011;5193;51.032;6.356;2023-08-08T15:05:30;2.83;;;1.23;;
10295;SDS011;5193;51.032;6.356;2023-08-08T15:07:56;3.77;;;1.80;;
10295;SDS011;5193;51.032;6.356;2023-08-08T15:10:22;3.10;;;1.27;;
10295;SDS011;5193;51.032;6.356;2023-08-08T15:12:48;1.63;;;1.10;;
10295;SDS011;5193;51.032;6.356;2023-08-08T15:15:13;4.40;;;1.47;;
10295;SDS011;5193;51.032;6.356;2023-08-08T15:17:42;2.17;;;1.30;;
10295;SDS011;5193;51.032;6.356;2023-08-08T15:20:10;3.13;;;1.53;;
10295;SDS011;5193;51.032;6.356;2023-08-08T15:22:36;3.63;;;1.40;;
10295;SDS011;5193;51.032;6.356;2023-08-08T15:25:03;1.43;;;1.33;;
10295;SDS011;5193;51.032;6.356;2023-08-08T15:27:29;2.90;;;1.30;;
10295;SDS011;5193;51.032;6.356;2023-08-08T15:29:55;4.37;;;1.30;;
10295;SDS011;5193;51.032;6.356;2023-08-08T15:32:21;3.83;;;1.33;;
10295;SDS011;5193;51.032;6.356;2023-08-08T15:34:47;1.50;;;1.10;;
10295;SDS011;5193;51.032;6.356;2023-08-08T15:37:12;1.93;;;1.27;;
10295;SDS011;5193;51.032;6.356;2023-08-08T15:39:38;1.93;;;1.30;;
10295;SDS011;5193;51.032;6.356;2023-08-08T15:42:04;4.87;;;1.47;;
10295;SDS011;5193;51.032;6.356;2023-08-08T15:44:30;2.37;;;1.53;;
10295;SDS011;5193;51.032;6.356;2023-08-08T15:46:56;3.80;;;1.17;;
10295;SDS011;5193;51.032;6.356;2023-08-08T15:49:22;2.03;;;1.17;;
10295;SDS011;5193;51.032;6.356;2023-08-08T15:51:47;2.77;;;1.37;;
10295;SDS011;5193;51.032;6.356;2023-08-08T15:54:13;4.70;;;1.30;;